createdAt,value
2022-09-28T00:01:26.037Z,4039
2022-09-28T00:06:38.687Z,4019
2022-09-28T00:11:51.250Z,3961
2022-09-28T00:17:03.870Z,3972
2022-09-28T00:22:16.414Z,4038
2022-09-28T00:27:29.243Z,4049
2022-09-28T00:32:41.637Z,4069
2022-09-28T00:37:54.263Z,3974
2022-09-28T00:43:06.908Z,4036
2022-09-28T00:48:19.226Z,3985
2022-09-28T00:53:31.713Z,4028
2022-09-28T00:58:44.367Z,4032
2022-09-28T01:03:56.820Z,4034
2022-09-28T01:09:09.302Z,4006
2022-09-28T01:14:21.613Z,4030
2022-09-28T01:19:33.978Z,3906
2022-09-28T01:24:46.427Z,4051
2022-09-28T01:29:58.773Z,3965
2022-09-28T01:35:11.161Z,4054
2022-09-28T01:40:23.651Z,3967
2022-09-28T01:45:35.921Z,4025
2022-09-28T01:50:48.386Z,3961
2022-09-28T01:56:00.640Z,4054
2022-09-28T02:01:13.058Z,4025
2022-09-28T02:06:25.309Z,3997
2022-09-28T02:11:37.839Z,3971
2022-09-28T02:16:50.560Z,4002
2022-09-28T02:22:02.948Z,4019
2022-09-28T02:27:15.402Z,4017
2022-09-28T02:32:27.859Z,4021
2022-09-28T02:37:40.366Z,3872
2022-09-28T02:42:52.786Z,3950
2022-09-28T02:48:05.139Z,4047
2022-09-28T02:53:17.588Z,3982
2022-09-28T02:58:30.080Z,4013
2022-09-28T03:03:42.583Z,4045
2022-09-28T03:08:55.021Z,3898
2022-09-28T03:14:07.517Z,3980
2022-09-28T03:19:19.975Z,3980
2022-09-28T03:24:33.567Z,3978
2022-09-28T03:29:46.062Z,3959
2022-09-28T03:34:58.503Z,3991
2022-09-28T03:40:11.021Z,3974
2022-09-28T03:45:23.478Z,3948
2022-09-28T03:50:35.808Z,3941
2022-09-28T03:55:48.143Z,3894
2022-09-28T04:01:00.676Z,3991
2022-09-28T04:06:12.827Z,3984
2022-09-28T04:11:25.241Z,4013
2022-09-28T04:16:37.722Z,3995
2022-09-28T04:21:50.040Z,4006
2022-09-28T04:27:02.286Z,4023
2022-09-28T04:32:14.755Z,4034
2022-09-28T04:37:27.207Z,4010
2022-09-28T04:42:39.386Z,3995
2022-09-28T04:47:51.701Z,4030
2022-09-28T04:53:04.068Z,4010
2022-09-28T04:58:16.609Z,4008
2022-09-28T05:03:28.982Z,3982
2022-09-28T05:08:41.445Z,4008
2022-09-28T05:13:53.776Z,3922
2022-09-28T05:19:06.366Z,3928
2022-09-28T05:24:19.152Z,3993
2022-09-28T05:29:32.328Z,3985
2022-09-28T05:34:43.436Z,4026
2022-09-28T05:39:55.891Z,4017
2022-09-28T05:45:08.149Z,4026
2022-09-28T05:50:20.708Z,3989
2022-09-28T05:55:33.391Z,4021
2022-09-28T06:00:45.838Z,3909
2022-09-28T06:05:58.074Z,4025
2022-09-28T06:11:10.430Z,4023
2022-09-28T06:16:22.801Z,3982
2022-09-28T06:21:35.058Z,3987
2022-09-28T06:26:47.405Z,3971
2022-09-28T06:31:59.716Z,3943
2022-09-28T06:37:11.937Z,3935
2022-09-28T06:42:24.406Z,3937
2022-09-28T06:47:36.621Z,3971
2022-09-28T06:52:48.907Z,3961
2022-09-28T06:58:01.425Z,4000
2022-09-28T07:03:13.703Z,3969
2022-09-28T07:08:25.992Z,3963
2022-09-28T07:13:53.704Z,4002
2022-09-28T07:18:50.725Z,3971
2022-09-28T07:24:04.071Z,4025
2022-09-28T07:29:16.503Z,3997
2022-09-28T07:34:28.769Z,3978
2022-09-28T07:39:41.753Z,4026
2022-09-28T07:44:54.085Z,3984
2022-09-28T07:50:06.403Z,3976
2022-09-28T07:55:18.698Z,3999
2022-09-28T08:00:34.052Z,4013
2022-09-28T08:05:43.572Z,4015
2022-09-28T08:16:08.114Z,3995
2022-09-28T08:21:20.644Z,3991
2022-09-28T08:26:32.990Z,4019
2022-09-28T08:31:45.621Z,4047
2022-09-28T08:36:58.042Z,4025
2022-09-28T08:42:10.337Z,4038
2022-09-28T08:47:22.888Z,4051
2022-09-28T08:52:35.201Z,4032
2022-09-28T08:57:47.638Z,4002
2022-09-28T09:02:59.835Z,4036
2022-09-28T09:08:12.060Z,4019
2022-09-28T09:13:24.490Z,4013
2022-09-28T09:18:36.839Z,3999
2022-09-28T09:23:49.336Z,3974
2022-09-28T09:29:01.769Z,4056
2022-09-28T09:34:14.216Z,4062
2022-09-28T09:39:26.590Z,4017
2022-09-28T09:44:39.051Z,4038
2022-09-28T09:49:51.505Z,4056
2022-09-28T09:55:03.771Z,4034
2022-09-28T10:00:16.263Z,4093
2022-09-28T10:05:28.487Z,4075
2022-09-28T10:10:40.948Z,4077
2022-09-28T10:15:53.358Z,4092
2022-09-28T10:21:05.596Z,4106
2022-09-28T10:26:21.613Z,4077
2022-09-28T10:31:30.696Z,4026
2022-09-28T10:36:43.025Z,4088
2022-09-28T10:41:55.507Z,4080
2022-09-28T10:47:07.732Z,4086
2022-09-28T10:52:20.192Z,4116
2022-09-28T10:57:32.388Z,4034
2022-09-28T11:02:44.970Z,4065
2022-09-28T11:07:57.175Z,4045
2022-09-28T11:13:09.471Z,4064
2022-09-28T11:18:21.681Z,4105
2022-09-28T11:23:34.024Z,4108
2022-09-28T11:28:46.427Z,4082
2022-09-28T11:33:58.853Z,4106
2022-09-28T11:39:11.265Z,4017
2022-09-28T11:44:23.207Z,4054
2022-09-28T11:49:35.521Z,4077
2022-09-28T11:54:47.742Z,4026
2022-09-28T12:00:00.182Z,4123
2022-09-28T12:05:14.878Z,4090
2022-09-28T12:10:24.748Z,4110
2022-09-28T12:15:52.974Z,4097
2022-09-28T12:20:49.459Z,4108
2022-09-28T12:31:14.418Z,4134
2022-09-28T12:36:26.898Z,4131
2022-09-28T12:41:39.385Z,4138
2022-09-28T12:46:51.710Z,4140
2022-09-28T12:52:03.923Z,4121
2022-09-28T12:57:16.547Z,4086
2022-09-28T13:02:29.126Z,4119
2022-09-28T13:07:41.480Z,4145
2022-09-28T13:12:53.938Z,4171
2022-09-28T13:18:06.547Z,4171
2022-09-28T13:23:18.960Z,4188
2022-09-28T13:28:31.207Z,4171
2022-09-28T13:33:43.608Z,4194
2022-09-28T13:38:56.239Z,4196
2022-09-28T13:44:08.885Z,4198
2022-09-28T13:49:21.598Z,4207
2022-09-28T13:54:36.127Z,4211
2022-09-28T13:59:46.492Z,4209
2022-09-28T14:04:59.306Z,4218
2022-09-28T14:10:11.424Z,4211
2022-09-28T14:15:23.872Z,4220
2022-09-28T14:20:35.963Z,4203
2022-09-28T14:25:48.193Z,4199
2022-09-28T14:31:00.280Z,4201
2022-09-28T14:36:12.520Z,4196
2022-09-28T14:41:24.643Z,4190
2022-09-28T14:46:37.080Z,4188
2022-09-28T14:51:49.287Z,4183
2022-09-28T14:57:01.393Z,4188
2022-09-28T15:02:14.186Z,4194
2022-09-28T15:07:26.054Z,4183
2022-09-28T15:12:38.256Z,4175
2022-09-28T15:17:50.306Z,4192
2022-09-28T15:23:02.667Z,4185
2022-09-28T15:28:14.924Z,4183
2022-09-28T15:33:27.269Z,4183
2022-09-28T15:38:39.468Z,4188
2022-09-28T15:43:51.889Z,4173
2022-09-28T15:49:03.989Z,4181
2022-09-28T15:54:16.434Z,4179
2022-09-28T15:59:28.553Z,4181
2022-09-28T16:04:40.801Z,4170
2022-09-28T16:09:53.118Z,4175
2022-09-28T16:15:05.410Z,4170
2022-09-28T16:20:17.686Z,4175
2022-09-28T16:25:30.068Z,4168
2022-09-28T16:30:42.376Z,4166
2022-09-28T16:35:54.725Z,4153
2022-09-28T16:41:07.032Z,4138
2022-09-28T16:46:19.176Z,4158
2022-09-28T16:51:31.507Z,4162
2022-09-28T16:56:43.919Z,4162
2022-09-28T17:01:56.233Z,4155
2022-09-28T17:07:08.377Z,4170
2022-09-28T17:12:20.696Z,4168
2022-09-28T17:17:32.703Z,4166
2022-09-28T17:22:45.045Z,4145
2022-09-28T17:27:57.244Z,4166
2022-09-28T17:33:09.592Z,4162
2022-09-28T17:38:22.106Z,4157
2022-09-28T17:43:34.523Z,4142
2022-09-28T17:48:46.847Z,4140
2022-09-28T17:53:59.189Z,4160
2022-09-28T17:59:11.337Z,4157
2022-09-28T18:04:47.487Z,4144
2022-09-28T18:09:36.035Z,4164
2022-09-28T18:14:48.330Z,4157
2022-09-28T18:20:00.779Z,4140
2022-09-28T18:25:13.028Z,4147
2022-09-28T18:30:25.391Z,4155
2022-09-28T18:35:37.943Z,4160
2022-09-28T18:40:50.197Z,4123
2022-09-28T18:46:02.476Z,4144
2022-09-28T18:51:14.724Z,4142
2022-09-28T18:56:27.044Z,4151
2022-09-28T19:01:39.487Z,4155
2022-09-28T19:06:51.697Z,4129
2022-09-28T19:12:04.413Z,4164
2022-09-28T19:17:16.749Z,4162
2022-09-28T19:22:30.294Z,4164
2022-09-28T19:27:42.749Z,4142
2022-09-28T19:32:55.195Z,4140
2022-09-28T19:38:07.683Z,4144
2022-09-28T19:43:20.038Z,4105
2022-09-28T19:48:32.462Z,4155
2022-09-28T19:53:45.050Z,4155
2022-09-28T19:58:57.606Z,4164
2022-09-28T20:04:10.000Z,4112
2022-09-28T20:09:22.449Z,4116
2022-09-28T20:14:38.139Z,4145
2022-09-28T20:19:47.295Z,4164
2022-09-28T20:24:59.718Z,4164
2022-09-28T20:30:12.026Z,4125
2022-09-28T20:35:32.521Z,4132
2022-09-28T20:40:37.100Z,4149
2022-09-28T20:45:49.226Z,4153
2022-09-28T20:51:01.524Z,4132
2022-09-28T20:56:13.802Z,4134
2022-09-28T21:01:26.097Z,4164
2022-09-28T21:06:38.503Z,4158
2022-09-28T21:11:50.739Z,4145
2022-09-28T21:17:02.897Z,4145
2022-09-28T21:22:15.179Z,4121
2022-09-28T21:27:27.439Z,4136
2022-09-28T21:32:39.905Z,4105
2022-09-28T21:37:52.192Z,4073
2022-09-28T21:43:04.879Z,4131
2022-09-28T21:48:17.203Z,4123
2022-09-28T21:53:29.595Z,4145
2022-09-28T21:58:42.041Z,4157
2022-09-28T22:03:54.376Z,4144
2022-09-28T22:09:06.646Z,4136
2022-09-28T22:14:19.334Z,4147
2022-09-28T22:19:31.567Z,4116
2022-09-28T22:24:44.182Z,4112
2022-09-28T22:29:56.602Z,4157
2022-09-28T22:35:09.064Z,4114
2022-09-28T22:40:21.473Z,4145
2022-09-28T22:45:33.870Z,4147
2022-09-28T22:50:46.217Z,4157
2022-09-28T22:55:58.742Z,4106
2022-09-28T23:01:11.165Z,4116
2022-09-28T23:06:22.784Z,4078
2022-09-28T23:11:35.091Z,4142
2022-09-28T23:16:47.600Z,4142
2022-09-28T23:21:59.962Z,4127
2022-09-28T23:27:12.100Z,4108
2022-09-28T23:32:27.520Z,4028
2022-09-28T23:37:36.926Z,4108
2022-09-28T23:42:49.322Z,4153
2022-09-28T23:48:01.433Z,4142
2022-09-28T23:53:13.793Z,4106
2022-09-28T23:58:26.038Z,4134
